Historyczne dane pomiarowe

Dodano dane terminowe – wersja testowa.

Dane z okresu 1951-2019

Wersja bazy: 1.34 [2019-03-16, lista zmian], aktualizacja planowana na 2019-04-15

Dane meteo z obszaru Polski uzyskane na podstawie danych udostępnionych przez Instytut Meteorologii i Gospodarki Wodnej – Państwowy Instytut Badawczy.

 

Wybierz Datę:    

       

TemperaturaWilgotnośćWiatrCiśnienieOpadyŚniegCzas trwania zjawisk
 Stacja t tx tn tng RH VA  wxwx mslp ppp RRR   cm mm wxwxwxwxwxwxwx
2002-01-14 -2.3 -1.0 -3.0 -3.4-------- 0.0-- 8---------
2002-01-15 -3.0 -2.0 -3.7 -4.0-------- 0.0-- 8---------
2002-01-16 -6.1 -2.7 -8.0-11.5-------- 0.0-- 8---------
2002-01-17 -5.7 -2.8-10.6 -6.6-------- 0.1-- 8---------
2002-01-18 -3.7 -2.8 -4.5 -8.3-------- 0.4-- 8---------
2002-01-19 -1.8 0.6 -6.1 -9.3-------- 0.6-- 8---------
2002-01-20 1.7 2.7 0.1 -0.7-------- 8.6-- 6---------
2002-01-21 3.6 4.8 1.7 -0.1-------- 2.2-- 4---------
2002-01-22 5.0 7.0 3.2 -0.3-------- 0.0------------
2002-01-23 4.5 7.9 2.9 -0.4-------- 0.1------------
2002-01-24 4.7 7.1 2.0 -0.6-------- 0.1------------
2002-01-25 3.8 7.7 1.5 0.2-------- 0.3------------
2002-01-26 4.3 7.9 0.0 -1.4-------- 3.8------------
2002-01-27 7.1 8.1 6.2 4.6-------- 5.9------------
2002-01-28 8.0 11.4 4.9 3.5-------- 2.8------------
2002-01-29 8.9 10.5 6.3 4.6-------- 0.2------------
2002-01-30 7.2 11.4 4.9 0.0-------- 0.0------------
2002-01-31 7.7 12.4 3.6 0.9-------- 0.1------------
2002-02-01 5.7 10.0 1.4 -1.2-------- 0.0------------
2002-02-02 8.8 13.9 6.1 2.1-------- 0.0------------
2002-02-03 8.3 14.1 4.0 0.3-------- 0.0------------
2002-02-04 6.2 12.3 3.7 -0.1-------- 0.0------------
2002-02-05 5.7 11.9 0.5 -2.7-------- 0.0------------
2002-02-06 7.7 11.6 6.0 3.7-------- 0.0------------
2002-02-07 3.9 7.1 1.5 -1.3-------- 0.0------------
2002-02-08 4.9 5.5 4.0 2.4-------- 9.5------------
2002-02-09 6.9 9.3 4.2 1.9-------- 6.8------------
2002-02-10 6.7 9.5 5.2 3.8-------- 3.1------------
2002-02-11 6.3 7.6 4.8 3.6-------- 8.3------------
2002-02-12 10.9 17.6 7.1 6.1-------- 8.2------------
146.9 ms

 

Źródłem pochodzenia danych jest Instytut Meteorologii i Gospodarki Wodnej – Państwowy Instytut Badawczy. Dane Instytutu Meteorologii i Gospodarki Wodnej – Państwowego Instytutu Badawczego zostały przetworzone.

Dane źródłowe można odnaleźć na stronie https://dane.imgw.pl